Hauptseite
METAR-TAF:

METAR-TAF

Flughäfen :

Flughafen Sunan

Pjöngjang, Nordkorea

Breite: 39-02N, Länge: 125-47E, Höhe: 36 m

METAR: fehlend

Zeit: 18:14 (09:44 UTC)

Prognose

Neuester Wetterbericht von vor 5 Stunden und 44 Minuten, um 04:00 UTC
Gültige Prognose vom 19 um 06 UTC bis 20 um 06 UTC
Wind 8 kt aus Südost
Sichtweite 10 km oder mehr
Geschlossene Wolkendecke in der Höhe von 2000 ft
Übergehend zu
vom 20 um 00 UTC bis 20 um 02 UTC
Wind 8 kt aus West/Südwest
Sichtweite: 4000 m
Leichtregen

TAF: ZKPY 190400Z 1906/2006 14004MPS 9999 OVC020 BECMG 2000/2002 24004MPS 4000 -RA TX25/2005Z TN18/1922Z

Wetterbeobachtungen und Prognosen von mehr als 4000 Flughäfen (METAR und TAF Bericht).

Die verfügbaren Stationen werden durch gelbe und rote Markierungen auf der Karte dargestellt.

Führen Sie die Maus auf sie, um den Namen der Station zu sehen.

Darauf klicken, um die Beobachtung von Wetterbeobachtungen und Prognosen zu sehen.

Um die Karte zu ändern : klicken Sie auf den grünen Tasten mit einem schwarzen Kreuz Zum Vergrößern, auf den grünen Button mit einem Gedankenstrich zu verkleinern, oder auf die grünen Pfeile für benachbarte Karten.


METAR-TAF: